Farmington, North Carolina
Current Conditions -  °F | °C
As of 11:15 PM on Tuesday 25 Nov 2014 (Local Time) from KEXX Reporting Station
Light Rain Light Rain  
Wind Chill: 48°   Ceiling: 6500
Heat Index: 48°   Visibility: 10mi
Dew Point: 45°   Wind: 0mph
Humidity: 87%   Direction: NA
Pressure: 30.06"   Gusts: NA
Location:  35.9339°N, 80.5455°W
Report Text: KEXX 260415Z AUTO 00000KT 10SM -RA OVC065 09/07 A3006 RMK AO2 P0002 T00900070
Loading
Personal Weather Stations






























Interactive Weather Map New forecast layout! Learn more

10-Day Weather Forecast

Advertisements
Track Severe Weather on mobile